Terminal Aerodrome Forecast
Issued by NWS Cleveland, OH

Home | Current Version | Previous Version | Text Only | Print | Product List | Glossary On
Versions: 1 2 3 4 5 6 7 8 9 10 11 12 13 14 15
000
FTUS41 KCLE 071724
TAFTOL
TAF
KTOL 071724Z 0718/0818 24011KT 6SM -SHRA SCT018 OVC100
      TEMPO 0718/0722 4SM -SHRA BR BKN018
     FM072200 31010KT 5SM -SHRA BR BKN008 OVC015
     FM080500 02006KT 6SM BR BKN018
     FM081500 05008KT P6SM SCT035 BKN200=

USA.gov is the U.S. government's official web portal to all federal, state and local government web resources and services.